sensor_id;sensor_type;location;lat;lon;timestamp;pressure;altitude;pressure_sealevel;temperature
82774;BMP280;72508;45.118;20.728;2024-03-17T00:02:23;100865.81;;;16.03
82774;BMP280;72508;45.118;20.728;2024-03-17T00:12:25;100852.75;;;15.97
82774;BMP280;72508;45.118;20.728;2024-03-17T00:22:28;100861.00;;;16.00
82774;BMP280;72508;45.118;20.728;2024-03-17T00:32:29;100857.25;;;15.96
82774;BMP280;72508;45.118;20.728;2024-03-17T00:42:32;100835.34;;;15.84
82774;BMP280;72508;45.118;20.728;2024-03-17T00:52:34;100828.34;;;15.78
82774;BMP280;72508;45.118;20.728;2024-03-17T01:02:36;100853.69;;;15.91
82774;BMP280;72508;45.118;20.728;2024-03-17T01:12:38;100827.94;;;15.69
82774;BMP280;72508;45.118;20.728;2024-03-17T01:22:40;100837.03;;;15.90
82774;BMP280;72508;45.118;20.728;2024-03-17T01:32:42;100836.94;;;15.85
82774;BMP280;72508;45.118;20.728;2024-03-17T01:42:44;100824.66;;;15.79
82774;BMP280;72508;45.118;20.728;2024-03-17T01:52:47;100835.97;;;15.63
82774;BMP280;72508;45.118;20.728;2024-03-17T02:02:49;100840.50;;;15.50
82774;BMP280;72508;45.118;20.728;2024-03-17T02:12:53;100839.34;;;15.58
82774;BMP280;72508;45.118;20.728;2024-03-17T02:22:55;100847.63;;;15.50
82774;BMP280;72508;45.118;20.728;2024-03-17T02:32:57;100842.09;;;15.51
82774;BMP280;72508;45.118;20.728;2024-03-17T02:42:59;100846.25;;;15.47
82774;BMP280;72508;45.118;20.728;2024-03-17T02:53:01;100841.09;;;15.41
82774;BMP280;72508;45.118;20.728;2024-03-17T03:03:04;100822.56;;;15.24
82774;BMP280;72508;45.118;20.728;2024-03-17T03:13:06;100835.34;;;15.32
82774;BMP280;72508;45.118;20.728;2024-03-17T03:23:08;100834.00;;;15.29
82774;BMP280;72508;45.118;20.728;2024-03-17T03:33:10;100820.47;;;15.02
82774;BMP280;72508;45.118;20.728;2024-03-17T03:43:12;100844.56;;;15.18
82774;BMP280;72508;45.118;20.728;2024-03-17T03:53:15;100815.44;;;15.01
82774;BMP280;72508;45.118;20.728;2024-03-17T04:03:17;100845.94;;;15.08
82774;BMP280;72508;45.118;20.728;2024-03-17T04:13:19;100838.63;;;14.87
82774;BMP280;72508;45.118;20.728;2024-03-17T04:23:21;100806.72;;;14.77
82774;BMP280;72508;45.118;20.728;2024-03-17T04:33:24;100848.44;;;15.03
82774;BMP280;72508;45.118;20.728;2024-03-17T04:43:26;100849.50;;;14.90
82774;BMP280;72508;45.118;20.728;2024-03-17T04:53:28;100845.03;;;14.91
82774;BMP280;72508;45.118;20.728;2024-03-17T05:03:30;100873.69;;;14.76
82774;BMP280;72508;45.118;20.728;2024-03-17T05:13:33;100833.19;;;14.46
82774;BMP280;72508;45.118;20.728;2024-03-17T05:23:36;100871.84;;;14.64
82774;BMP280;72508;45.118;20.728;2024-03-17T05:33:39;100900.75;;;14.71
82774;BMP280;72508;45.118;20.728;2024-03-17T05:43:41;100906.47;;;14.80
82774;BMP280;72508;45.118;20.728;2024-03-17T05:53:43;100910.41;;;14.89
82774;BMP280;72508;45.118;20.728;2024-03-17T06:03:47;100915.56;;;14.84
82774;BMP280;72508;45.118;20.728;2024-03-17T06:13:49;100928.38;;;14.92
82774;BMP280;72508;45.118;20.728;2024-03-17T06:23:52;100934.03;;;14.96
82774;BMP280;72508;45.118;20.728;2024-03-17T06:33:58;100943.25;;;15.28
82774;BMP280;72508;45.118;20.728;2024-03-17T06:43:59;100954.22;;;15.25
82774;BMP280;72508;45.118;20.728;2024-03-17T06:54:01;100950.31;;;15.75
82774;BMP280;72508;45.118;20.728;2024-03-17T07:04:03;100972.09;;;16.05
82774;BMP280;72508;45.118;20.728;2024-03-17T07:14:05;100990.59;;;16.34
82774;BMP280;72508;45.118;20.728;2024-03-17T07:24:07;100986.53;;;16.15
82774;BMP280;72508;45.118;20.728;2024-03-17T07:34:08;101011.03;;;16.67
82774;BMP280;72508;45.118;20.728;2024-03-17T07:44:11;101002.81;;;16.23
82774;BMP280;72508;45.118;20.728;2024-03-17T07:54:20;101012.88;;;16.38
82774;BMP280;72508;45.118;20.728;2024-03-17T08:04:22;101007.63;;;16.26
82774;BMP280;72508;45.118;20.728;2024-03-17T08:14:24;101025.28;;;16.38
82774;BMP280;72508;45.118;20.728;2024-03-17T08:24:26;101022.09;;;16.36
82774;BMP280;72508;45.118;20.728;2024-03-17T08:34:28;101024.78;;;16.12
82774;BMP280;72508;45.118;20.728;2024-03-17T08:44:29;101033.75;;;16.23
82774;BMP280;72508;45.118;20.728;2024-03-17T08:54:31;101030.88;;;16.24
82774;BMP280;72508;45.118;20.728;2024-03-17T09:04:33;101024.97;;;16.34
82774;BMP280;72508;45.118;20.728;2024-03-17T09:14:35;100991.31;;;16.75
82774;BMP280;72508;45.118;20.728;2024-03-17T09:24:36;101022.97;;;17.93
82774;BMP280;72508;45.118;20.728;2024-03-17T09:34:38;100993.25;;;19.10
82774;BMP280;72508;45.118;20.728;2024-03-17T09:44:40;101015.44;;;19.88
82774;BMP280;72508;45.118;20.728;2024-03-17T09:54:42;101003.47;;;19.81
82774;BMP280;72508;45.118;20.728;2024-03-17T10:04:44;101023.44;;;21.26
82774;BMP280;72508;45.118;20.728;2024-03-17T10:15:00;101018.94;;;19.41
82774;BMP280;72508;45.118;20.728;2024-03-17T10:25:04;101009.28;;;18.55
82774;BMP280;72508;45.118;20.728;2024-03-17T10:35:25;100996.53;;;18.25
82774;BMP280;72508;45.118;20.728;2024-03-17T10:45:28;101014.00;;;19.13
82774;BMP280;72508;45.118;20.728;2024-03-17T10:55:42;101017.34;;;21.16
82774;BMP280;72508;45.118;20.728;2024-03-17T11:05:46;101008.91;;;20.68
82774;BMP280;72508;45.118;20.728;2024-03-17T11:15:48;101006.06;;;21.49
82774;BMP280;72508;45.118;20.728;2024-03-17T11:25:52;100979.38;;;20.43
82774;BMP280;72508;45.118;20.728;2024-03-17T11:36:32;100994.25;;;20.75
82774;BMP280;72508;45.118;20.728;2024-03-17T11:46:34;100967.09;;;20.73
82774;BMP280;72508;45.118;20.728;2024-03-17T11:56:36;100950.38;;;21.87
82774;BMP280;72508;45.118;20.728;2024-03-17T12:06:38;100940.47;;;22.80
82774;BMP280;72508;45.118;20.728;2024-03-17T12:16:51;100921.69;;;23.28
82774;BMP280;72508;45.118;20.728;2024-03-17T12:26:54;100923.03;;;23.68
82774;BMP280;72508;45.118;20.728;2024-03-17T12:37:04;100923.72;;;23.74
82774;BMP280;72508;45.118;20.728;2024-03-17T12:47:08;100912.75;;;23.38
82774;BMP280;72508;45.118;20.728;2024-03-17T12:57:11;100921.81;;;23.61
82774;BMP280;72508;45.118;20.728;2024-03-17T13:07:33;100912.00;;;23.70
82774;BMP280;72508;45.118;20.728;2024-03-17T13:17:36;100907.63;;;23.41
82774;BMP280;72508;45.118;20.728;2024-03-17T13:27:39;100893.03;;;23.85
82774;BMP280;72508;45.118;20.728;2024-03-17T13:37:42;100899.19;;;22.91
82774;BMP280;72508;45.118;20.728;2024-03-17T13:47:50;100890.38;;;23.15
82774;BMP280;72508;45.118;20.728;2024-03-17T13:57:57;100857.59;;;22.42
82774;BMP280;72508;45.118;20.728;2024-03-17T14:08:01;100864.34;;;23.01
82774;BMP280;72508;45.118;20.728;2024-03-17T14:18:03;100856.84;;;23.41
82774;BMP280;72508;45.118;20.728;2024-03-17T14:28:06;100852.88;;;23.20
82774;BMP280;72508;45.118;20.728;2024-03-17T14:38:08;100846.94;;;23.42
82774;BMP280;72508;45.118;20.728;2024-03-17T14:48:14;100833.16;;;23.16
82774;BMP280;72508;45.118;20.728;2024-03-17T14:58:16;100821.25;;;22.89
82774;BMP280;72508;45.118;20.728;2024-03-17T15:08:20;100829.38;;;21.78
82774;BMP280;72508;45.118;20.728;2024-03-17T15:18:22;100838.84;;;21.16
82774;BMP280;72508;45.118;20.728;2024-03-17T15:28:24;100796.94;;;20.77
82774;BMP280;72508;45.118;20.728;2024-03-17T15:38:26;100831.41;;;20.53
82774;BMP280;72508;45.118;20.728;2024-03-17T15:48:28;100833.56;;;20.40
82774;BMP280;72508;45.118;20.728;2024-03-17T15:58:31;100844.47;;;20.18
82774;BMP280;72508;45.118;20.728;2024-03-17T16:08:33;100842.38;;;20.10
82774;BMP280;72508;45.118;20.728;2024-03-17T16:18:40;100840.78;;;19.79
82774;BMP280;72508;45.118;20.728;2024-03-17T16:28:42;100851.88;;;19.55
82774;BMP280;72508;45.118;20.728;2024-03-17T16:38:44;100846.53;;;19.45
82774;BMP280;72508;45.118;20.728;2024-03-17T16:48:46;100853.88;;;19.12
82774;BMP280;72508;45.118;20.728;2024-03-17T16:58:48;100850.06;;;18.93
82774;BMP280;72508;45.118;20.728;2024-03-17T17:08:50;100835.03;;;18.56
82774;BMP280;72508;45.118;20.728;2024-03-17T17:18:55;100857.53;;;18.53
82774;BMP280;72508;45.118;20.728;2024-03-17T17:28:59;100860.00;;;18.28
82774;BMP280;72508;45.118;20.728;2024-03-17T17:39:01;100859.03;;;18.07
82774;BMP280;72508;45.118;20.728;2024-03-17T17:49:03;100860.94;;;17.84
82774;BMP280;72508;45.118;20.728;2024-03-17T17:59:05;100861.81;;;17.68
82774;BMP280;72508;45.118;20.728;2024-03-17T18:09:07;100849.50;;;17.57
82774;BMP280;72508;45.118;20.728;2024-03-17T18:19:17;100850.19;;;17.47
82774;BMP280;72508;45.118;20.728;2024-03-17T18:29:19;100843.38;;;17.29
82774;BMP280;72508;45.118;20.728;2024-03-17T18:39:21;100825.66;;;17.08
82774;BMP280;72508;45.118;20.728;2024-03-17T18:49:23;100839.19;;;16.94
82774;BMP280;72508;45.118;20.728;2024-03-17T18:59:25;100842.56;;;16.68
82774;BMP280;72508;45.118;20.728;2024-03-17T19:09:26;100847.94;;;16.11
82774;BMP280;72508;45.118;20.728;2024-03-17T19:19:28;100836.94;;;15.85
82774;BMP280;72508;45.118;20.728;2024-03-17T19:29:30;100824.34;;;15.75
82774;BMP280;72508;45.118;20.728;2024-03-17T19:39:32;100833.25;;;15.57
82774;BMP280;72508;45.118;20.728;2024-03-17T19:49:34;100815.69;;;15.51
82774;BMP280;72508;45.118;20.728;2024-03-17T19:59:36;100833.16;;;15.52
82774;BMP280;72508;45.118;20.728;2024-03-17T20:09:37;100774.97;;;14.95
82774;BMP280;72508;45.118;20.728;2024-03-17T20:19:39;100838.09;;;15.37
82774;BMP280;72508;45.118;20.728;2024-03-17T20:29:44;100838.00;;;15.08
82774;BMP280;72508;45.118;20.728;2024-03-17T20:39:48;100815.88;;;14.86
82774;BMP280;72508;45.118;20.728;2024-03-17T20:49:51;100829.06;;;14.98
82774;BMP280;72508;45.118;20.728;2024-03-17T20:59:53;100813.25;;;14.98
82774;BMP280;72508;45.118;20.728;2024-03-17T21:10:00;100808.78;;;14.75
82774;BMP280;72508;45.118;20.728;2024-03-17T21:20:03;100820.84;;;14.70
82774;BMP280;72508;45.118;20.728;2024-03-17T21:30:11;100804.16;;;14.35
82774;BMP280;72508;45.118;20.728;2024-03-17T21:40:14;100806.38;;;14.19
82774;BMP280;72508;45.118;20.728;2024-03-17T21:50:18;100789.31;;;13.61
82774;BMP280;72508;45.118;20.728;2024-03-17T22:00:19;100785.69;;;13.63
82774;BMP280;72508;45.118;20.728;2024-03-17T22:10:23;100801.25;;;13.64
82774;BMP280;72508;45.118;20.728;2024-03-17T22:20:27;100796.16;;;13.32
82774;BMP280;72508;45.118;20.728;2024-03-17T22:30:29;100787.78;;;13.17
82774;BMP280;72508;45.118;20.728;2024-03-17T22:40:30;100792.63;;;13.20
82774;BMP280;72508;45.118;20.728;2024-03-17T22:50:32;100771.72;;;13.07
82774;BMP280;72508;45.118;20.728;2024-03-17T23:00:38;100790.56;;;13.22
82774;BMP280;72508;45.118;20.728;2024-03-17T23:10:43;100785.84;;;13.31
82774;BMP280;72508;45.118;20.728;2024-03-17T23:20:45;100769.38;;;13.35
82774;BMP280;72508;45.118;20.728;2024-03-17T23:30:47;100760.59;;;13.60
82774;BMP280;72508;45.118;20.728;2024-03-17T23:40:49;100746.84;;;13.58
82774;BMP280;72508;45.118;20.728;2024-03-17T23:50:50;100728.00;;;13.43
